createdAt,value
2022-09-30T00:00:17.446Z,21.33
2022-09-30T00:02:44.773Z,20.50
2022-09-30T00:05:12.297Z,19.35
2022-09-30T00:07:39.636Z,18.35
2022-09-30T00:10:10.236Z,20.38
2022-09-30T00:12:37.706Z,21.27
2022-09-30T00:15:06.087Z,19.58
2022-09-30T00:17:33.558Z,17.77
2022-09-30T00:20:00.939Z,23.08
2022-09-30T00:22:29.282Z,17.00
2022-09-30T00:24:59.853Z,15.73
2022-09-30T00:27:29.774Z,13.88
2022-09-30T00:29:57.118Z,16.33
2022-09-30T00:32:24.401Z,19.10
2022-09-30T00:34:51.797Z,18.58
2022-09-30T00:37:19.256Z,16.23
2022-09-30T00:39:47.264Z,18.13
2022-09-30T00:42:17.011Z,17.10
2022-09-30T00:45:03.658Z,14.88
2022-09-30T00:47:50.545Z,16.55
2022-09-30T00:50:39.517Z,19.25
2022-09-30T00:53:38.167Z,14.43
2022-09-30T00:56:11.907Z,16.00
2022-09-30T00:58:49.132Z,18.55
2022-09-30T01:01:17.436Z,15.80
2022-09-30T01:03:51.289Z,16.55
2022-09-30T01:06:21.991Z,16.83
2022-09-30T01:08:49.672Z,16.80
2022-09-30T01:11:17.325Z,17.25
2022-09-30T01:13:48.396Z,16.00
2022-09-30T01:16:38.827Z,19.60
2022-09-30T01:19:32.009Z,17.85
2022-09-30T01:22:21.845Z,19.17
2022-09-30T01:25:24.523Z,16.95
2022-09-30T01:28:22.048Z,18.27
2022-09-30T01:31:09.657Z,16.80
2022-09-30T01:33:53.431Z,21.13
2022-09-30T01:36:46.266Z,18.50
2022-09-30T01:39:36.917Z,18.75
2022-09-30T01:42:17.048Z,16.08
2022-09-30T01:44:55.004Z,21.02
2022-09-30T01:47:28.237Z,17.30
2022-09-30T01:50:32.784Z,14.48
2022-09-30T01:53:18.867Z,15.95
2022-09-30T01:55:53.997Z,18.67
2022-09-30T01:58:42.065Z,16.35
2022-09-30T02:01:16.579Z,16.73
2022-09-30T02:03:50.098Z,16.00
2022-09-30T02:06:26.460Z,20.13
2022-09-30T02:09:05.325Z,17.05
2022-09-30T02:11:36.692Z,17.08
2022-09-30T02:14:15.200Z,18.30
2022-09-30T02:16:54.968Z,16.88
2022-09-30T02:19:35.905Z,14.98
2022-09-30T02:22:11.947Z,15.88
2022-09-30T02:24:44.094Z,16.55
2022-09-30T02:27:20.632Z,20.07
2022-09-30T02:29:56.633Z,15.48
2022-09-30T02:32:34.021Z,18.05
2022-09-30T02:35:13.476Z,15.95
2022-09-30T02:37:46.174Z,17.20
2022-09-30T02:40:27.176Z,15.48
2022-09-30T02:42:54.931Z,15.63
2022-09-30T02:45:25.453Z,15.93
2022-09-30T02:47:59.704Z,17.30
2022-09-30T02:50:35.324Z,16.08
2022-09-30T02:53:24.268Z,15.90
2022-09-30T02:56:13.421Z,16.40
2022-09-30T02:58:43.493Z,15.65
2022-09-30T03:01:13.911Z,17.52
2022-09-30T03:03:54.030Z,14.98
2022-09-30T03:06:21.785Z,14.07
2022-09-30T03:08:49.517Z,17.25
2022-09-30T03:11:20.933Z,15.32
2022-09-30T03:14:15.860Z,14.88
2022-09-30T03:17:10.213Z,16.08
2022-09-30T03:20:06.172Z,15.25
2022-09-30T03:23:01.943Z,15.18
2022-09-30T03:25:59.714Z,16.92
2022-09-30T03:28:37.051Z,17.15
2022-09-30T03:31:27.098Z,15.40
2022-09-30T03:34:04.004Z,16.83
2022-09-30T03:36:51.905Z,15.02
2022-09-30T03:39:31.646Z,17.63
2022-09-30T03:42:19.360Z,13.48
2022-09-30T03:45:12.105Z,17.05
2022-09-30T03:47:48.814Z,15.05
2022-09-30T03:50:21.045Z,16.10
2022-09-30T03:52:52.272Z,13.77
2022-09-30T03:55:21.596Z,13.52
2022-09-30T03:57:49.625Z,13.65
2022-09-30T04:00:17.221Z,12.07
2022-09-30T04:02:47.210Z,16.20
2022-09-30T04:05:14.640Z,15.40
2022-09-30T04:07:42.081Z,12.45
2022-09-30T04:10:09.693Z,13.70
2022-09-30T04:12:37.685Z,14.43
2022-09-30T04:15:06.361Z,13.27
2022-09-30T04:17:33.890Z,14.75
2022-09-30T04:20:04.236Z,14.55
2022-09-30T04:22:31.907Z,12.35
2022-09-30T04:24:59.314Z,13.15
2022-09-30T04:27:28.568Z,12.10
2022-09-30T04:29:56.061Z,12.23
2022-09-30T04:32:23.629Z,13.55
2022-09-30T04:34:51.673Z,15.95
2022-09-30T04:37:18.982Z,15.90
2022-09-30T04:39:46.333Z,13.52
2022-09-30T04:42:13.706Z,16.00
2022-09-30T04:44:41.241Z,11.05
2022-09-30T04:47:08.658Z,10.05
2022-09-30T04:49:36.356Z,14.13
2022-09-30T04:52:03.884Z,12.43
2022-09-30T04:54:31.209Z,14.00
2022-09-30T04:57:01.318Z,11.98
2022-09-30T04:59:31.100Z,14.05
2022-09-30T05:01:58.593Z,13.18
2022-09-30T05:04:26.302Z,13.68
2022-09-30T05:06:53.658Z,12.13
2022-09-30T05:09:21.284Z,14.05
2022-09-30T05:11:49.166Z,12.13
2022-09-30T05:14:19.510Z,12.57
2022-09-30T05:16:46.989Z,15.85
2022-09-30T05:19:14.436Z,13.80
2022-09-30T05:21:43.753Z,12.60
2022-09-30T05:24:13.735Z,14.30
2022-09-30T05:26:41.385Z,15.18
2022-09-30T05:29:10.264Z,14.18
2022-09-30T05:31:37.977Z,12.18
2022-09-30T05:34:05.376Z,13.90
2022-09-30T05:36:32.781Z,12.73
2022-09-30T05:39:00.572Z,13.43
2022-09-30T05:41:28.102Z,12.77
2022-09-30T05:43:55.812Z,10.35
2022-09-30T05:46:23.618Z,13.15
2022-09-30T05:48:53.751Z,13.35
2022-09-30T05:51:21.833Z,12.73
2022-09-30T05:53:49.226Z,14.88
2022-09-30T05:56:16.560Z,15.48
2022-09-30T05:58:44.014Z,13.23
2022-09-30T06:01:16.573Z,13.27
2022-09-30T06:03:45.389Z,11.50
2022-09-30T06:06:13.701Z,12.45
2022-09-30T06:08:41.946Z,10.90
2022-09-30T06:11:12.366Z,13.18
2022-09-30T06:13:41.355Z,13.93
2022-09-30T06:16:09.996Z,11.45
2022-09-30T06:18:41.851Z,12.13
2022-09-30T06:21:12.276Z,12.20
2022-09-30T06:23:40.294Z,11.45
2022-09-30T06:26:09.565Z,12.20
2022-09-30T06:28:39.167Z,12.00
2022-09-30T06:31:08.112Z,12.38
2022-09-30T06:33:35.537Z,14.60
2022-09-30T06:36:04.790Z,11.85
2022-09-30T06:38:35.382Z,15.48
2022-09-30T06:41:03.083Z,15.00
2022-09-30T06:43:31.899Z,12.93
2022-09-30T06:46:15.386Z,17.70
2022-09-30T06:48:47.458Z,17.50
2022-09-30T06:51:15.156Z,10.32
2022-09-30T06:53:48.975Z,9.05
2022-09-30T06:56:19.420Z,9.48
2022-09-30T06:58:49.577Z,11.77
2022-09-30T07:01:17.004Z,10.85
2022-09-30T07:03:45.876Z,8.27
2022-09-30T07:06:15.574Z,12.52
2022-09-30T07:08:42.933Z,8.88
2022-09-30T07:11:15.750Z,13.23
2022-09-30T07:13:47.739Z,9.90
2022-09-30T07:16:17.756Z,10.05
2022-09-30T07:18:45.870Z,12.20
2022-09-30T07:21:19.211Z,9.63
2022-09-30T07:23:48.429Z,11.25
2022-09-30T07:26:18.685Z,9.60
2022-09-30T07:28:47.467Z,9.02
2022-09-30T07:31:32.449Z,12.85
2022-09-30T07:34:00.874Z,10.98
2022-09-30T07:36:33.149Z,11.13
2022-09-30T07:39:07.536Z,10.00
2022-09-30T07:41:44.190Z,13.80
2022-09-30T07:44:15.062Z,11.50
2022-09-30T07:46:44.225Z,13.40
2022-09-30T07:49:16.105Z,12.90
2022-09-30T07:51:51.567Z,11.52
2022-09-30T07:54:25.486Z,10.45
2022-09-30T07:57:10.532Z,14.18
2022-09-30T07:59:41.352Z,12.02
2022-09-30T08:02:15.083Z,12.77
2022-09-30T08:04:45.200Z,12.02
2022-09-30T08:07:17.638Z,10.82
2022-09-30T08:09:45.111Z,15.57
2022-09-30T08:12:12.531Z,13.80
2022-09-30T08:14:39.883Z,13.50
2022-09-30T08:17:09.978Z,19.95
2022-09-30T08:19:37.527Z,13.70
2022-09-30T08:22:06.714Z,15.23
2022-09-30T08:24:34.218Z,12.98
2022-09-30T08:27:03.433Z,13.73
2022-09-30T08:32:21.572Z,13.88
2022-09-30T08:34:48.906Z,14.40
2022-09-30T08:37:18.567Z,14.57
2022-09-30T08:39:49.276Z,15.35
2022-09-30T08:42:40.304Z,14.23
2022-09-30T08:45:25.723Z,14.85
2022-09-30T08:48:17.879Z,12.75
2022-09-30T08:51:07.627Z,14.27
2022-09-30T08:53:39.985Z,15.68
2022-09-30T08:56:08.417Z,12.32
2022-09-30T08:58:43.927Z,16.40
2022-09-30T09:01:25.444Z,14.77
2022-09-30T09:03:54.226Z,15.00
2022-09-30T09:06:40.701Z,14.07
2022-09-30T09:09:29.974Z,13.40
2022-09-30T09:12:08.609Z,15.63
2022-09-30T09:15:04.997Z,13.93
2022-09-30T09:18:21.414Z,14.88
2022-09-30T09:20:54.878Z,15.75
2022-09-30T09:23:25.184Z,15.98
2022-09-30T09:25:55.718Z,15.70
2022-09-30T09:28:38.106Z,18.02
2022-09-30T09:31:05.890Z,16.90
2022-09-30T09:33:39.598Z,20.58
2022-09-30T09:36:33.158Z,19.75
2022-09-30T09:39:24.235Z,18.80
2022-09-30T09:42:26.185Z,21.50
2022-09-30T09:45:06.910Z,19.60
2022-09-30T09:47:34.431Z,21.33
2022-09-30T09:50:15.262Z,20.38
2022-09-30T09:53:22.501Z,23.75
2022-09-30T09:55:56.454Z,19.17
2022-09-30T09:58:25.307Z,19.58
2022-09-30T10:01:11.418Z,19.65
2022-09-30T10:03:39.736Z,18.65
2022-09-30T10:06:10.899Z,19.73
2022-09-30T10:08:52.334Z,20.75
2022-09-30T10:11:26.231Z,18.42
2022-09-30T10:13:58.260Z,19.85
2022-09-30T10:16:35.734Z,19.08
2022-09-30T10:19:09.452Z,19.35
2022-09-30T10:21:37.358Z,16.17
2022-09-30T10:24:28.166Z,19.60
2022-09-30T10:26:55.629Z,16.67
2022-09-30T10:29:28.610Z,21.27
2022-09-30T10:34:33.274Z,17.73
2022-09-30T10:40:01.788Z,17.55
2022-09-30T10:42:34.651Z,19.45
2022-09-30T10:45:26.198Z,19.98
2022-09-30T10:47:55.530Z,22.05
2022-09-30T10:50:27.919Z,20.58
2022-09-30T10:53:01.222Z,19.77
2022-09-30T10:55:34.728Z,19.58
2022-09-30T10:58:30.552Z,18.75
2022-09-30T11:01:11.682Z,18.55
2022-09-30T11:04:08.772Z,18.50
2022-09-30T11:06:40.157Z,19.70
2022-09-30T11:09:33.507Z,20.30
2022-09-30T11:12:09.427Z,23.95
2022-09-30T11:14:47.152Z,19.98
2022-09-30T11:17:34.025Z,19.00
2022-09-30T11:20:19.217Z,22.02
2022-09-30T11:22:55.530Z,14.93
2022-09-30T11:25:33.613Z,18.65
2022-09-30T11:28:25.958Z,16.15
2022-09-30T11:31:08.351Z,14.75
2022-09-30T11:33:52.193Z,14.90
2022-09-30T11:36:43.228Z,15.85
2022-09-30T11:39:31.063Z,14.98
2022-09-30T11:42:11.773Z,16.77
2022-09-30T11:44:43.438Z,16.92
2022-09-30T11:47:32.531Z,14.85
2022-09-30T11:50:14.154Z,14.85
2022-09-30T11:52:59.395Z,18.58
2022-09-30T11:55:48.561Z,20.20
2022-09-30T11:58:40.424Z,17.13
2022-09-30T12:01:30.521Z,19.15
2022-09-30T12:04:13.580Z,18.63
2022-09-30T12:06:49.661Z,19.45
2022-09-30T12:09:25.911Z,20.38
2022-09-30T12:12:16.773Z,15.90
2022-09-30T12:14:52.026Z,14.88
2022-09-30T12:17:31.514Z,13.88
2022-09-30T12:20:08.738Z,19.35
2022-09-30T12:22:42.359Z,13.85
2022-09-30T12:25:22.487Z,13.75
2022-09-30T12:28:27.939Z,12.35
2022-09-30T12:31:09.174Z,16.27
2022-09-30T12:33:53.540Z,14.45
2022-09-30T12:36:41.022Z,14.90
2022-09-30T12:39:33.332Z,15.63
2022-09-30T12:42:35.990Z,14.25
2022-09-30T12:45:34.992Z,13.98
2022-09-30T12:48:15.136Z,14.95
2022-09-30T12:50:50.190Z,13.82
2022-09-30T12:53:30.264Z,15.40
2022-09-30T12:56:18.970Z,12.82
2022-09-30T12:58:51.854Z,13.43
2022-09-30T13:01:29.379Z,12.73
2022-09-30T13:04:19.201Z,10.43
2022-09-30T13:07:08.377Z,14.85
2022-09-30T13:09:55.231Z,14.13
2022-09-30T13:12:39.234Z,13.40
2022-09-30T13:15:38.995Z,13.40
2022-09-30T13:18:46.998Z,13.80
2022-09-30T13:21:20.606Z,17.23
2022-09-30T13:23:50.573Z,14.32
2022-09-30T13:26:37.955Z,19.70
2022-09-30T13:29:35.384Z,13.20
2022-09-30T13:32:05.310Z,17.05
2022-09-30T13:34:35.622Z,13.90
2022-09-30T13:37:24.074Z,14.73
2022-09-30T13:39:56.297Z,15.68
2022-09-30T13:42:30.293Z,13.60
2022-09-30T13:45:24.894Z,12.77
2022-09-30T13:48:16.353Z,14.30
2022-09-30T13:50:50.725Z,15.07
2022-09-30T13:53:41.623Z,13.32
2022-09-30T13:56:29.287Z,11.63
2022-09-30T13:59:26.546Z,13.90
2022-09-30T14:02:30.962Z,15.43
2022-09-30T14:05:28.210Z,14.95
2022-09-30T14:08:26.326Z,16.95
2022-09-30T14:11:21.707Z,12.25
2022-09-30T14:14:34.547Z,14.07
2022-09-30T14:17:34.612Z,14.00
2022-09-30T14:20:32.823Z,17.27
2022-09-30T14:23:15.949Z,15.60
2022-09-30T14:25:59.867Z,16.85
2022-09-30T14:28:43.820Z,18.65
2022-09-30T14:31:17.289Z,17.75
2022-09-30T14:33:51.830Z,16.38
2022-09-30T14:36:24.531Z,14.00
2022-09-30T14:39:05.577Z,12.45
2022-09-30T14:41:42.502Z,18.02
2022-09-30T14:44:19.143Z,17.73
2022-09-30T14:47:04.033Z,15.40
2022-09-30T14:49:48.032Z,15.98
2022-09-30T14:52:47.064Z,14.05
2022-09-30T14:55:31.980Z,14.80
2022-09-30T14:58:47.555Z,15.40
2022-09-30T15:04:00.765Z,17.92
2022-09-30T15:06:40.778Z,18.25
2022-09-30T15:09:37.518Z,14.73
2022-09-30T15:12:21.157Z,15.45
2022-09-30T15:14:54.517Z,17.13
2022-09-30T15:17:27.285Z,15.18
2022-09-30T15:19:57.782Z,16.30
2022-09-30T15:22:29.224Z,17.67
2022-09-30T15:25:01.022Z,17.35
2022-09-30T15:27:31.529Z,19.52
2022-09-30T15:30:01.581Z,18.45
2022-09-30T15:32:32.961Z,18.40
2022-09-30T15:35:15.547Z,19.33
2022-09-30T15:37:43.695Z,17.33
2022-09-30T15:40:32.461Z,20.23
2022-09-30T15:43:08.525Z,18.70
2022-09-30T15:45:43.488Z,19.27
2022-09-30T15:48:37.304Z,19.75
2022-09-30T15:51:28.297Z,25.58
2022-09-30T15:54:00.422Z,18.60
2022-09-30T15:56:35.406Z,20.48
2022-09-30T15:59:08.618Z,23.33
2022-09-30T16:01:54.562Z,23.13
2022-09-30T16:04:26.493Z,22.15
2022-09-30T16:07:07.901Z,24.10
2022-09-30T16:09:37.753Z,24.50
2022-09-30T16:12:10.040Z,22.20
2022-09-30T16:15:08.200Z,25.60
2022-09-30T16:17:38.861Z,26.25
2022-09-30T16:20:24.047Z,22.98
2022-09-30T16:22:55.096Z,25.10
2022-09-30T16:25:28.777Z,29.02
2022-09-30T16:28:02.614Z,26.10
2022-09-30T16:30:34.721Z,23.02
2022-09-30T16:33:11.950Z,26.63
2022-09-30T16:35:45.509Z,27.27
2022-09-30T16:38:24.589Z,23.65
2022-09-30T16:40:59.264Z,25.60
2022-09-30T16:43:30.202Z,25.33
2022-09-30T16:45:59.941Z,27.35
2022-09-30T16:48:29.552Z,28.88
2022-09-30T16:51:15.940Z,28.17
2022-09-30T16:53:44.185Z,28.48
2022-09-30T16:56:16.679Z,27.42
2022-09-30T16:58:44.480Z,29.70
2022-09-30T17:01:22.349Z,29.63
2022-09-30T17:03:50.415Z,28.80
2022-09-30T17:06:26.783Z,33.40
2022-09-30T17:08:54.545Z,34.28
2022-09-30T17:11:28.275Z,30.58
2022-09-30T17:13:58.133Z,27.70
2022-09-30T17:16:27.749Z,32.00
2022-09-30T17:18:58.173Z,31.23
2022-09-30T17:21:26.788Z,29.42
2022-09-30T17:23:55.798Z,28.23
2022-09-30T17:26:27.261Z,31.35
2022-09-30T17:28:57.655Z,28.88
2022-09-30T17:31:36.367Z,29.80
2022-09-30T17:34:08.192Z,40.83
2022-09-30T17:36:38.625Z,33.25
2022-09-30T17:39:07.677Z,27.00
2022-09-30T17:41:50.473Z,28.13
2022-09-30T17:44:17.834Z,27.00
2022-09-30T17:46:46.243Z,24.95
2022-09-30T17:49:20.703Z,21.80
2022-09-30T17:51:51.710Z,27.48
2022-09-30T17:54:19.219Z,24.88
2022-09-30T17:56:58.505Z,24.52
2022-09-30T17:59:29.476Z,25.65
2022-09-30T18:01:58.622Z,24.73
2022-09-30T18:04:27.489Z,23.02
2022-09-30T18:06:56.069Z,23.83
2022-09-30T18:09:26.314Z,23.58
2022-09-30T18:11:54.635Z,23.85
2022-09-30T18:14:22.089Z,21.00
2022-09-30T18:16:49.490Z,20.35
2022-09-30T18:19:17.130Z,23.65
2022-09-30T18:21:44.571Z,21.45
2022-09-30T18:24:12.034Z,20.23
2022-09-30T18:26:40.373Z,20.05
2022-09-30T18:29:08.050Z,22.60
2022-09-30T18:31:37.134Z,22.33
2022-09-30T18:34:09.074Z,22.83
2022-09-30T18:36:40.098Z,21.80
2022-09-30T18:39:12.859Z,20.88
2022-09-30T18:41:45.767Z,20.92
2022-09-30T18:44:14.062Z,24.60
2022-09-30T18:46:42.954Z,20.00
2022-09-30T18:49:10.818Z,23.45
2022-09-30T18:51:40.534Z,35.58
2022-09-30T18:54:11.442Z,41.53
2022-09-30T18:56:39.650Z,28.02
2022-09-30T19:01:36.828Z,23.67
2022-09-30T19:04:04.808Z,23.92
2022-09-30T19:06:35.801Z,22.45
2022-09-30T19:09:06.883Z,21.73
2022-09-30T19:11:39.525Z,21.60
2022-09-30T19:14:10.717Z,20.23
2022-09-30T19:16:41.045Z,19.58
2022-09-30T19:19:10.634Z,19.42
2022-09-30T19:21:41.410Z,18.80
2022-09-30T19:24:09.686Z,19.48
2022-09-30T19:26:38.660Z,21.38
2022-09-30T19:29:07.804Z,20.85
2022-09-30T19:31:37.295Z,22.80
2022-09-30T19:34:05.422Z,22.88
2022-09-30T19:36:43.588Z,19.75
2022-09-30T19:39:15.853Z,24.15
2022-09-30T19:41:44.732Z,20.42
2022-09-30T19:44:19.285Z,23.40
2022-09-30T19:46:50.825Z,23.45
2022-09-30T19:49:19.084Z,29.52
2022-09-30T19:51:46.668Z,25.85
2022-09-30T19:54:14.316Z,25.65
2022-09-30T19:56:41.648Z,24.67
2022-09-30T19:59:09.149Z,25.85
2022-09-30T20:01:39.359Z,24.45
2022-09-30T20:04:09.913Z,25.90
2022-09-30T20:06:37.443Z,24.83
2022-09-30T20:09:06.997Z,27.13
2022-09-30T20:11:36.862Z,25.05
2022-09-30T20:14:25.027Z,23.90
2022-09-30T20:16:53.502Z,22.15
2022-09-30T20:19:22.483Z,26.77
2022-09-30T20:21:50.248Z,25.52
2022-09-30T20:24:21.050Z,22.48
2022-09-30T20:26:52.652Z,24.52
2022-09-30T20:29:20.754Z,23.05
2022-09-30T20:31:49.419Z,22.20
2022-09-30T20:34:20.448Z,22.77
2022-09-30T20:36:48.541Z,22.05
2022-09-30T20:39:16.116Z,22.45
2022-09-30T20:41:45.399Z,20.83
2022-09-30T20:44:17.151Z,21.77
2022-09-30T20:46:44.537Z,21.33
2022-09-30T20:49:18.164Z,25.10
2022-09-30T20:51:45.705Z,20.42
2022-09-30T20:54:18.374Z,23.48
2022-09-30T20:57:06.259Z,25.60
2022-09-30T20:59:35.964Z,21.30
2022-09-30T21:02:07.830Z,21.40
2022-09-30T21:04:38.333Z,21.23
2022-09-30T21:07:07.056Z,21.63
2022-09-30T21:09:35.587Z,20.67
2022-09-30T21:12:22.929Z,22.40
2022-09-30T21:14:52.991Z,22.38
2022-09-30T21:17:24.005Z,23.52
2022-09-30T21:19:56.712Z,23.92
2022-09-30T21:22:27.334Z,21.85
2022-09-30T21:24:59.694Z,21.40
2022-09-30T21:27:32.286Z,22.67
2022-09-30T21:30:01.724Z,27.63
2022-09-30T21:32:34.022Z,18.92
2022-09-30T21:35:02.733Z,23.77
2022-09-30T21:37:31.497Z,44.10
2022-09-30T21:39:59.065Z,19.45
2022-09-30T21:42:26.873Z,68.35
2022-09-30T21:44:55.408Z,22.55
2022-09-30T21:47:28.193Z,20.83
2022-09-30T21:49:55.567Z,22.05
2022-09-30T21:52:28.565Z,22.08
2022-09-30T21:54:58.199Z,20.45
2022-09-30T21:57:25.589Z,18.33
2022-09-30T21:59:53.060Z,20.02
2022-09-30T22:02:22.486Z,19.25
2022-09-30T22:04:49.777Z,20.73
2022-09-30T22:07:17.318Z,27.27
2022-09-30T22:09:44.778Z,27.52
2022-09-30T22:12:12.154Z,26.00
2022-09-30T22:14:39.601Z,28.98
2022-09-30T22:17:10.353Z,28.38
2022-09-30T22:19:38.299Z,29.95
2022-09-30T22:22:12.121Z,27.40
2022-09-30T22:24:42.009Z,28.13
2022-09-30T22:27:09.490Z,30.55
2022-09-30T22:29:36.889Z,31.25
2022-09-30T22:32:08.326Z,29.83
2022-09-30T22:34:51.234Z,29.15
2022-09-30T22:37:34.330Z,34.80
2022-09-30T22:40:01.873Z,32.00
2022-09-30T22:42:30.476Z,32.92
2022-09-30T22:45:00.925Z,33.10
2022-09-30T22:47:28.448Z,32.17
2022-09-30T22:49:55.840Z,29.67
2022-09-30T22:52:23.294Z,34.30
2022-09-30T22:54:54.160Z,31.27
2022-09-30T22:57:21.492Z,31.13
2022-09-30T22:59:54.066Z,31.98
2022-09-30T23:02:22.383Z,29.80
2022-09-30T23:04:52.717Z,29.83
2022-09-30T23:07:20.419Z,31.33
2022-09-30T23:09:53.575Z,34.88
2022-09-30T23:14:49.126Z,30.17
2022-09-30T23:17:16.704Z,31.27
2022-09-30T23:19:53.980Z,30.58
2022-09-30T23:22:25.025Z,31.98
2022-09-30T23:24:52.337Z,31.95
2022-09-30T23:27:20.327Z,30.90
2022-09-30T23:29:47.599Z,34.88
2022-09-30T23:32:14.984Z,34.20
2022-09-30T23:34:42.474Z,34.03
2022-09-30T23:37:10.833Z,32.83
2022-09-30T23:39:38.258Z,34.63
2022-09-30T23:42:07.928Z,34.58
2022-09-30T23:44:35.297Z,32.38
2022-09-30T23:47:20.909Z,30.45
2022-09-30T23:49:50.393Z,30.95
2022-09-30T23:52:18.025Z,35.25
2022-09-30T23:54:45.615Z,37.42
2022-09-30T23:57:13.022Z,43.72
2022-09-30T23:59:40.493Z,37.47
